Lumsden, Canada
Current Conditions -  °F | °C
As of 2:00 PM on Thursday 23 Oct 2014 (Local Time) from CYQR Reporting Station
Broken Clouds Broken Clouds  
Wind Chill: 15°   Ceiling: 21000
Heat Index: 15°   Visibility: 15mi
Dew Point:   Wind: 10mph
Humidity: 51%   Direction: 190°S
Pressure: 29.66"   Gusts: NA
Location:  50.64°N, 104.87°W
Report Text: CYQR 232000Z 19009KT 15SM FEW120 BKN210 15/05 A2966 RMK AC2CI5 SLP058 DENSITY ALT 2500FT
Loading
Personal Weather Stations






























Interactive Weather Map
Tropical Storm Tracking
New forecast layout! Learn more

10-Day Weather Forecast

Advertisements
Track Severe Weather on mobile